sensor_id;sensor_type;location;lat;lon;timestamp;pressure;altitude;pressure_sealevel;temperature;humidity
35023;BME280;21214;44.912;8.204;2023-04-22T00:02:12;99652.75;;;11.95;100.00
35023;BME280;21214;44.912;8.204;2023-04-22T00:04:39;99662.19;;;11.98;100.00
35023;BME280;21214;44.912;8.204;2023-04-22T00:07:05;99653.41;;;11.97;100.00
35023;BME280;21214;44.912;8.204;2023-04-22T00:09:31;99653.16;;;11.90;100.00
35023;BME280;21214;44.912;8.204;2023-04-22T00:11:56;99650.25;;;11.94;100.00
35023;BME280;21214;44.912;8.204;2023-04-22T00:14:23;99646.75;;;11.93;100.00
35023;BME280;21214;44.912;8.204;2023-04-22T00:16:49;99651.06;;;11.94;100.00
35023;BME280;21214;44.912;8.204;2023-04-22T00:19:14;99645.78;;;11.94;100.00
35023;BME280;21214;44.912;8.204;2023-04-22T00:21:40;99647.47;;;11.95;100.00
35023;BME280;21214;44.912;8.204;2023-04-22T00:24:05;99641.34;;;11.95;100.00
35023;BME280;21214;44.912;8.204;2023-04-22T00:26:31;99643.44;;;11.91;100.00
35023;BME280;21214;44.912;8.204;2023-04-22T00:28:56;99637.50;;;11.79;100.00
35023;BME280;21214;44.912;8.204;2023-04-22T00:31:22;99637.22;;;11.82;100.00
35023;BME280;21214;44.912;8.204;2023-04-22T00:33:47;99640.53;;;11.84;100.00
35023;BME280;21214;44.912;8.204;2023-04-22T00:36:13;99638.91;;;11.83;100.00
35023;BME280;21214;44.912;8.204;2023-04-22T00:38:38;99639.19;;;11.80;100.00
35023;BME280;21214;44.912;8.204;2023-04-22T00:41:03;99632.22;;;11.79;100.00
35023;BME280;21214;44.912;8.204;2023-04-22T00:43:29;99633.09;;;11.70;100.00
35023;BME280;21214;44.912;8.204;2023-04-22T00:45:55;99633.09;;;11.70;100.00
35023;BME280;21214;44.912;8.204;2023-04-22T00:48:21;99635.03;;;11.68;100.00
35023;BME280;21214;44.912;8.204;2023-04-22T00:50:48;99626.34;;;11.58;100.00
35023;BME280;21214;44.912;8.204;2023-04-22T00:53:14;99637.38;;;11.54;100.00
35023;BME280;21214;44.912;8.204;2023-04-22T00:55:40;99630.69;;;11.49;100.00
35023;BME280;21214;44.912;8.204;2023-04-22T00:58:05;99619.59;;;11.46;100.00
35023;BME280;21214;44.912;8.204;2023-04-22T01:00:31;99621.53;;;11.44;100.00
35023;BME280;21214;44.912;8.204;2023-04-22T01:02:56;99618.75;;;11.45;100.00
35023;BME280;21214;44.912;8.204;2023-04-22T01:05:22;99618.75;;;11.45;100.00
35023;BME280;21214;44.912;8.204;2023-04-22T01:07:47;99617.22;;;11.43;100.00
35023;BME280;21214;44.912;8.204;2023-04-22T01:10:13;99618.22;;;11.42;100.00
35023;BME280;21214;44.912;8.204;2023-04-22T01:12:38;99614.91;;;11.40;100.00
35023;BME280;21214;44.912;8.204;2023-04-22T01:15:04;99625.75;;;11.37;100.00
35023;BME280;21214;44.912;8.204;2023-04-22T01:17:30;99615.78;;;11.31;100.00
35023;BME280;21214;44.912;8.204;2023-04-22T01:19:57;99619.16;;;11.23;100.00
35023;BME280;21214;44.912;8.204;2023-04-22T01:22:22;99609.41;;;11.24;100.00
35023;BME280;21214;44.912;8.204;2023-04-22T01:24:50;99614.97;;;11.21;100.00
35023;BME280;21214;44.912;8.204;2023-04-22T01:27:15;99608.31;;;11.17;100.00
35023;BME280;21214;44.912;8.204;2023-04-22T01:29:41;99616.53;;;11.14;100.00
35023;BME280;21214;44.912;8.204;2023-04-22T01:32:06;99621.72;;;11.05;100.00
35023;BME280;21214;44.912;8.204;2023-04-22T01:34:32;99613.97;;;10.94;100.00
35023;BME280;21214;44.912;8.204;2023-04-22T01:36:57;99614.25;;;10.91;100.00
35023;BME280;21214;44.912;8.204;2023-04-22T01:39:23;99612.59;;;10.81;100.00
35023;BME280;21214;44.912;8.204;2023-04-22T01:41:49;99613.47;;;10.72;100.00
35023;BME280;21214;44.912;8.204;2023-04-22T01:44:15;99621.69;;;10.49;100.00
35023;BME280;21214;44.912;8.204;2023-04-22T01:46:40;99618.50;;;10.46;100.00
35023;BME280;21214;44.912;8.204;2023-04-22T01:49:05;99613.50;;;10.52;100.00
35023;BME280;21214;44.912;8.204;2023-04-22T01:51:31;99615.44;;;10.60;100.00
35023;BME280;21214;44.912;8.204;2023-04-22T01:53:56;99614.03;;;10.65;100.00
35023;BME280;21214;44.912;8.204;2023-04-22T01:56:22;99615.94;;;10.73;100.00
35023;BME280;21214;44.912;8.204;2023-04-22T01:58:48;99616.50;;;10.77;100.00
35023;BME280;21214;44.912;8.204;2023-04-22T02:01:14;99620.66;;;10.79;100.00
35023;BME280;21214;44.912;8.204;2023-04-22T02:03:39;99621.06;;;10.84;100.00
35023;BME280;21214;44.912;8.204;2023-04-22T02:06:06;99625.38;;;10.85;100.00
35023;BME280;21214;44.912;8.204;2023-04-22T02:08:31;99619.13;;;10.86;100.00
35023;BME280;21214;44.912;8.204;2023-04-22T02:10:57;99618.59;;;10.73;100.00
35023;BME280;21214;44.912;8.204;2023-04-22T02:13:24;99612.47;;;10.73;100.00
35023;BME280;21214;44.912;8.204;2023-04-22T02:15:49;99610.56;;;10.65;100.00
35023;BME280;21214;44.912;8.204;2023-04-22T02:18:15;99613.50;;;10.43;100.00
35023;BME280;21214;44.912;8.204;2023-04-22T02:20:42;99613.50;;;10.43;100.00
35023;BME280;21214;44.912;8.204;2023-04-22T02:23:07;99611.56;;;10.35;100.00
35023;BME280;21214;44.912;8.204;2023-04-22T02:25:32;99616.56;;;10.29;100.00
35023;BME280;21214;44.912;8.204;2023-04-22T02:27:58;99618.19;;;10.10;100.00
35023;BME280;21214;44.912;8.204;2023-04-22T02:30:23;99608.19;;;10.04;100.00
35023;BME280;21214;44.912;8.204;2023-04-22T02:32:49;99612.94;;;10.10;100.00
35023;BME280;21214;44.912;8.204;2023-04-22T02:35:14;99617.38;;;10.19;100.00
35023;BME280;21214;44.912;8.204;2023-04-22T02:37:40;99615.88;;;10.26;100.00
35023;BME280;21214;44.912;8.204;2023-04-22T02:40:05;99627.38;;;10.25;100.00
35023;BME280;21214;44.912;8.204;2023-04-22T02:42:31;99623.66;;;10.28;100.00
35023;BME280;21214;44.912;8.204;2023-04-22T02:44:57;99621.28;;;10.35;100.00
35023;BME280;21214;44.912;8.204;2023-04-22T02:47:22;99619.34;;;10.37;100.00
35023;BME280;21214;44.912;8.204;2023-04-22T02:49:47;99617.13;;;10.42;100.00
35023;BME280;21214;44.912;8.204;2023-04-22T02:52:13;99616.13;;;10.43;100.00
35023;BME280;21214;44.912;8.204;2023-04-22T02:54:38;99617.53;;;10.37;100.00
35023;BME280;21214;44.912;8.204;2023-04-22T02:57:04;99609.91;;;10.34;100.00
35023;BME280;21214;44.912;8.204;2023-04-22T02:59:30;99615.19;;;10.24;100.00
35023;BME280;21214;44.912;8.204;2023-04-22T03:01:55;99606.84;;;10.19;100.00
35023;BME280;21214;44.912;8.204;2023-04-22T03:04:53;99609.91;;;10.24;100.00
35023;BME280;21214;44.912;8.204;2023-04-22T03:07:18;99608.78;;;10.27;100.00
35023;BME280;21214;44.912;8.204;2023-04-22T03:09:44;99609.63;;;10.27;100.00
35023;BME280;21214;44.912;8.204;2023-04-22T03:12:09;99613.47;;;10.14;100.00
35023;BME280;21214;44.912;8.204;2023-04-22T03:14:35;99620.13;;;9.89;100.00
35023;BME280;21214;44.912;8.204;2023-04-22T03:17:00;99612.78;;;9.83;100.00
35023;BME280;21214;44.912;8.204;2023-04-22T03:19:26;99609.56;;;9.79;100.00
35023;BME280;21214;44.912;8.204;2023-04-22T03:21:51;99607.06;;;9.78;100.00
35023;BME280;21214;44.912;8.204;2023-04-22T03:24:17;99609.56;;;9.70;100.00
35023;BME280;21214;44.912;8.204;2023-04-22T03:26:47;99620.34;;;9.57;100.00
35023;BME280;21214;44.912;8.204;2023-04-22T03:29:12;99612.78;;;9.43;100.00
35023;BME280;21214;44.912;8.204;2023-04-22T03:31:37;99605.59;;;9.45;100.00
35023;BME280;21214;44.912;8.204;2023-04-22T03:34:03;99605.31;;;9.38;100.00
35023;BME280;21214;44.912;8.204;2023-04-22T03:36:30;99600.75;;;9.40;100.00
35023;BME280;21214;44.912;8.204;2023-04-22T03:38:55;99607.25;;;9.36;100.00
35023;BME280;21214;44.912;8.204;2023-04-22T03:41:23;99603.69;;;9.47;100.00
35023;BME280;21214;44.912;8.204;2023-04-22T03:43:51;99598.13;;;9.50;100.00
35023;BME280;21214;44.912;8.204;2023-04-22T03:46:16;99602.19;;;9.54;100.00
35023;BME280;21214;44.912;8.204;2023-04-22T03:48:58;99600.34;;;9.55;100.00
35023;BME280;21214;44.912;8.204;2023-04-22T03:51:29;99603.88;;;9.65;100.00
35023;BME280;21214;44.912;8.204;2023-04-22T03:53:57;99613.44;;;9.66;100.00
35023;BME280;21214;44.912;8.204;2023-04-22T03:56:24;99616.75;;;9.68;100.00
35023;BME280;21214;44.912;8.204;2023-04-22T03:58:53;99609.25;;;9.54;100.00
35023;BME280;21214;44.912;8.204;2023-04-22T04:01:19;99603.69;;;9.57;100.00
35023;BME280;21214;44.912;8.204;2023-04-22T04:03:48;99606.69;;;9.42;100.00
35023;BME280;21214;44.912;8.204;2023-04-22T04:06:15;99608.03;;;9.27;100.00
35023;BME280;21214;44.912;8.204;2023-04-22T04:08:41;99604.16;;;9.31;100.00
35023;BME280;21214;44.912;8.204;2023-04-22T04:11:07;99605.16;;;9.30;100.00
35023;BME280;21214;44.912;8.204;2023-04-22T04:13:33;99605.84;;;9.32;100.00
35023;BME280;21214;44.912;8.204;2023-04-22T04:16:13;99612.78;;;9.33;100.00
35023;BME280;21214;44.912;8.204;2023-04-22T04:18:41;99607.25;;;9.36;100.00
35023;BME280;21214;44.912;8.204;2023-04-22T04:21:06;99621.63;;;9.32;100.00
35023;BME280;21214;44.912;8.204;2023-04-22T04:23:36;99623.59;;;9.30;100.00
35023;BME280;21214;44.912;8.204;2023-04-22T04:26:02;99619.00;;;9.32;100.00
35023;BME280;21214;44.912;8.204;2023-04-22T04:28:32;99623.06;;;9.36;100.00
35023;BME280;21214;44.912;8.204;2023-04-22T04:31:00;99619.72;;;9.34;100.00
35023;BME280;21214;44.912;8.204;2023-04-22T04:33:28;99627.97;;;9.20;100.00
35023;BME280;21214;44.912;8.204;2023-04-22T04:35:55;99630.44;;;9.12;100.00
35023;BME280;21214;44.912;8.204;2023-04-22T04:38:27;99633.31;;;9.09;100.00
35023;BME280;21214;44.912;8.204;2023-04-22T04:40:53;99634.03;;;9.11;100.00
35023;BME280;21214;44.912;8.204;2023-04-22T04:43:22;99631.84;;;9.16;100.00
35023;BME280;21214;44.912;8.204;2023-04-22T04:45:55;99623.09;;;9.16;100.00
35023;BME280;21214;44.912;8.204;2023-04-22T04:48:29;99631.56;;;9.19;100.00
35023;BME280;21214;44.912;8.204;2023-04-22T04:51:03;99625.84;;;9.14;100.00
35023;BME280;21214;44.912;8.204;2023-04-22T04:53:33;99628.50;;;9.14;100.00
35023;BME280;21214;44.912;8.204;2023-04-22T04:55:58;99630.16;;;9.15;100.00
35023;BME280;21214;44.912;8.204;2023-04-22T04:58:25;99633.75;;;9.14;100.00
35023;BME280;21214;44.912;8.204;2023-04-22T05:01:05;99629.91;;;9.18;100.00
35023;BME280;21214;44.912;8.204;2023-04-22T05:03:31;99628.91;;;9.19;100.00
35023;BME280;21214;44.912;8.204;2023-04-22T05:05:57;99626.47;;;9.27;100.00
35023;BME280;21214;44.912;8.204;2023-04-22T05:08:23;99631.22;;;9.33;100.00
35023;BME280;21214;44.912;8.204;2023-04-22T05:10:51;99636.28;;;9.25;100.00
35023;BME280;21214;44.912;8.204;2023-04-22T05:13:17;99635.75;;;9.31;100.00
35023;BME280;21214;44.912;8.204;2023-04-22T05:15:45;99635.53;;;9.34;100.00
35023;BME280;21214;44.912;8.204;2023-04-22T05:18:10;99630.97;;;9.36;100.00
35023;BME280;21214;44.912;8.204;2023-04-22T05:20:36;99638.31;;;9.42;100.00
35023;BME280;21214;44.912;8.204;2023-04-22T05:23:02;99644.16;;;9.46;100.00
35023;BME280;21214;44.912;8.204;2023-04-22T05:25:27;99643.84;;;9.39;100.00
35023;BME280;21214;44.912;8.204;2023-04-22T05:28:00;99644.25;;;9.35;100.00
35023;BME280;21214;44.912;8.204;2023-04-22T05:30:31;99646.06;;;9.34;100.00
35023;BME280;21214;44.912;8.204;2023-04-22T05:32:57;99648.81;;;9.33;100.00
35023;BME280;21214;44.912;8.204;2023-04-22T05:35:23;99660.19;;;9.33;100.00
35023;BME280;21214;44.912;8.204;2023-04-22T05:37:50;99663.22;;;9.29;100.00
35023;BME280;21214;44.912;8.204;2023-04-22T05:40:15;99665.44;;;9.33;100.00
35023;BME280;21214;44.912;8.204;2023-04-22T05:42:41;99664.34;;;9.36;100.00
35023;BME280;21214;44.912;8.204;2023-04-22T05:45:07;99666.31;;;9.43;100.00
35023;BME280;21214;44.912;8.204;2023-04-22T05:47:32;99662.72;;;9.44;100.00
35023;BME280;21214;44.912;8.204;2023-04-22T05:49:58;99672.41;;;9.44;100.00
35023;BME280;21214;44.912;8.204;2023-04-22T05:52:35;99659.38;;;9.42;100.00
35023;BME280;21214;44.912;8.204;2023-04-22T05:55:05;99668.28;;;9.51;100.00
35023;BME280;21214;44.912;8.204;2023-04-22T05:57:31;99672.19;;;9.57;100.00
35023;BME280;21214;44.912;8.204;2023-04-22T05:59:59;99671.94;;;9.60;100.00
35023;BME280;21214;44.912;8.204;2023-04-22T06:02:24;99674.28;;;9.63;100.00
35023;BME280;21214;44.912;8.204;2023-04-22T06:04:50;99670.91;;;9.51;100.00
35023;BME280;21214;44.912;8.204;2023-04-22T06:07:15;99677.16;;;9.50;100.00
35023;BME280;21214;44.912;8.204;2023-04-22T06:09:40;99675.34;;;9.51;100.00
35023;BME280;21214;44.912;8.204;2023-04-22T06:12:06;99681.34;;;9.53;100.00
35023;BME280;21214;44.912;8.204;2023-04-22T06:14:33;99684.94;;;9.52;100.00
35023;BME280;21214;44.912;8.204;2023-04-22T06:16:58;99680.09;;;9.57;100.00
35023;BME280;21214;44.912;8.204;2023-04-22T06:19:23;99683.78;;;9.44;100.00
35023;BME280;21214;44.912;8.204;2023-04-22T06:21:49;99694.59;;;9.41;100.00
35023;BME280;21214;44.912;8.204;2023-04-22T06:24:15;99703.38;;;9.52;100.00
35023;BME280;21214;44.912;8.204;2023-04-22T06:26:41;99700.53;;;9.74;100.00
35023;BME280;21214;44.912;8.204;2023-04-22T06:29:06;99701.66;;;9.81;100.00
35023;BME280;21214;44.912;8.204;2023-04-22T06:31:33;99709.75;;;9.89;100.00
35023;BME280;21214;44.912;8.204;2023-04-22T06:33:58;99709.41;;;9.73;100.00
35023;BME280;21214;44.912;8.204;2023-04-22T06:36:24;99707.78;;;9.91;100.00
35023;BME280;21214;44.912;8.204;2023-04-22T06:38:55;99712.00;;;10.03;100.00
35023;BME280;21214;44.912;8.204;2023-04-22T06:41:39;99708.38;;;10.04;100.00
35023;BME280;21214;44.912;8.204;2023-04-22T06:44:27;99712.19;;;10.21;100.00
35023;BME280;21214;44.912;8.204;2023-04-22T06:47:19;99703.19;;;10.33;100.00
35023;BME280;21214;44.912;8.204;2023-04-22T06:49:52;99700.72;;;10.41;100.00
35023;BME280;21214;44.912;8.204;2023-04-22T06:52:28;99703.75;;;10.46;100.00
35023;BME280;21214;44.912;8.204;2023-04-22T06:54:56;99692.53;;;10.54;100.00
35023;BME280;21214;44.912;8.204;2023-04-22T06:57:21;99696.69;;;10.66;100.00
35023;BME280;21214;44.912;8.204;2023-04-22T06:59:47;99702.06;;;10.74;100.00
35023;BME280;21214;44.912;8.204;2023-04-22T07:02:12;99698.19;;;10.78;100.00
35023;BME280;21214;44.912;8.204;2023-04-22T07:04:38;99700.41;;;10.83;100.00
35023;BME280;21214;44.912;8.204;2023-04-22T07:07:04;99699.03;;;10.88;100.00
35023;BME280;21214;44.912;8.204;2023-04-22T07:09:29;99685.94;;;10.96;100.00
35023;BME280;21214;44.912;8.204;2023-04-22T07:11:55;99690.63;;;11.02;100.00
35023;BME280;21214;44.912;8.204;2023-04-22T07:14:24;99682.16;;;11.08;100.00
35023;BME280;21214;44.912;8.204;2023-04-22T07:16:49;99682.28;;;11.17;100.00
35023;BME280;21214;44.912;8.204;2023-04-22T07:19:15;99684.03;;;11.26;100.00
35023;BME280;21214;44.912;8.204;2023-04-22T07:21:40;99682.50;;;11.33;100.00
35023;BME280;21214;44.912;8.204;2023-04-22T07:24:05;99689.72;;;11.40;100.00
35023;BME280;21214;44.912;8.204;2023-04-22T07:26:31;99679.41;;;11.47;100.00
35023;BME280;21214;44.912;8.204;2023-04-22T07:28:58;99677.84;;;11.54;100.00
35023;BME280;21214;44.912;8.204;2023-04-22T07:31:23;99681.84;;;11.58;100.00
35023;BME280;21214;44.912;8.204;2023-04-22T07:33:49;99673.34;;;11.64;100.00
35023;BME280;21214;44.912;8.204;2023-04-22T07:36:14;99678.19;;;11.69;100.00
35023;BME280;21214;44.912;8.204;2023-04-22T07:38:39;99681.78;;;11.77;100.00
35023;BME280;21214;44.912;8.204;2023-04-22T07:41:05;99673.16;;;11.75;100.00
35023;BME280;21214;44.912;8.204;2023-04-22T07:43:30;99667.44;;;11.80;100.00
35023;BME280;21214;44.912;8.204;2023-04-22T07:45:55;99674.09;;;11.84;100.00
35023;BME280;21214;44.912;8.204;2023-04-22T07:48:21;99669.47;;;11.86;100.00
35023;BME280;21214;44.912;8.204;2023-04-22T07:50:47;99671.78;;;11.71;100.00
35023;BME280;21214;44.912;8.204;2023-04-22T07:53:12;99674.25;;;11.73;100.00
35023;BME280;21214;44.912;8.204;2023-04-22T07:55:39;99675.91;;;11.83;100.00
35023;BME280;21214;44.912;8.204;2023-04-22T07:58:05;99671.09;;;11.97;100.00
35023;BME280;21214;44.912;8.204;2023-04-22T08:00:32;99671.72;;;12.08;100.00
35023;BME280;21214;44.912;8.204;2023-04-22T08:02:57;99676.56;;;12.13;100.00
35023;BME280;21214;44.912;8.204;2023-04-22T08:05:22;99668.03;;;12.19;100.00
35023;BME280;21214;44.912;8.204;2023-04-22T08:07:48;99669.84;;;12.36;100.00
35023;BME280;21214;44.912;8.204;2023-04-22T08:10:13;99672.28;;;12.47;100.00
35023;BME280;21214;44.912;8.204;2023-04-22T08:12:38;99665.50;;;12.70;100.00
35023;BME280;21214;44.912;8.204;2023-04-22T08:15:04;99675.09;;;12.89;100.00
35023;BME280;21214;44.912;8.204;2023-04-22T08:17:30;99672.69;;;13.04;100.00
35023;BME280;21214;44.912;8.204;2023-04-22T08:19:55;99672.00;;;13.20;100.00
35023;BME280;21214;44.912;8.204;2023-04-22T08:22:23;99674.06;;;13.34;100.00
35023;BME280;21214;44.912;8.204;2023-04-22T08:24:49;99667.00;;;13.42;100.00
35023;BME280;21214;44.912;8.204;2023-04-22T08:27:15;99667.38;;;13.56;100.00
35023;BME280;21214;44.912;8.204;2023-04-22T08:29:43;99668.94;;;13.66;100.00
35023;BME280;21214;44.912;8.204;2023-04-22T08:32:09;99668.06;;;13.58;100.00
35023;BME280;21214;44.912;8.204;2023-04-22T08:34:34;99666.44;;;13.65;100.00
35023;BME280;21214;44.912;8.204;2023-04-22T08:37:01;99667.47;;;13.72;100.00
35023;BME280;21214;44.912;8.204;2023-04-22T08:39:26;99663.16;;;13.79;100.00
35023;BME280;21214;44.912;8.204;2023-04-22T08:41:52;99667.53;;;13.96;100.00
35023;BME280;21214;44.912;8.204;2023-04-22T08:44:18;99670.91;;;14.06;100.00
35023;BME280;21214;44.912;8.204;2023-04-22T08:46:43;99674.72;;;14.12;100.00
35023;BME280;21214;44.912;8.204;2023-04-22T08:49:15;99677.38;;;14.20;100.00
35023;BME280;21214;44.912;8.204;2023-04-22T08:51:41;99672.78;;;14.30;100.00
35023;BME280;21214;44.912;8.204;2023-04-22T08:54:07;99677.44;;;14.36;100.00
35023;BME280;21214;44.912;8.204;2023-04-22T08:56:32;99683.53;;;14.28;100.00
35023;BME280;21214;44.912;8.204;2023-04-22T08:58:58;99683.56;;;14.37;100.00
35023;BME280;21214;44.912;8.204;2023-04-22T09:01:24;99687.53;;;14.32;100.00
35023;BME280;21214;44.912;8.204;2023-04-22T09:03:51;99679.13;;;14.45;100.00
35023;BME280;21214;44.912;8.204;2023-04-22T09:06:18;99678.13;;;14.62;100.00
35023;BME280;21214;44.912;8.204;2023-04-22T09:08:43;99676.97;;;14.73;100.00
35023;BME280;21214;44.912;8.204;2023-04-22T09:11:10;99666.34;;;14.81;100.00
35023;BME280;21214;44.912;8.204;2023-04-22T09:13:35;99661.88;;;14.90;100.00
35023;BME280;21214;44.912;8.204;2023-04-22T09:16:01;99671.81;;;14.96;100.00
35023;BME280;21214;44.912;8.204;2023-04-22T09:18:27;99660.69;;;15.00;100.00
35023;BME280;21214;44.912;8.204;2023-04-22T09:20:53;99657.16;;;15.08;100.00
35023;BME280;21214;44.912;8.204;2023-04-22T09:23:19;99668.34;;;14.87;100.00
35023;BME280;21214;44.912;8.204;2023-04-22T09:25:44;99664.34;;;14.75;100.00
35023;BME280;21214;44.912;8.204;2023-04-22T09:28:11;99664.00;;;14.86;100.00
35023;BME280;21214;44.912;8.204;2023-04-22T09:30:37;99648.38;;;14.99;100.00
35023;BME280;21214;44.912;8.204;2023-04-22T09:33:03;99646.22;;;15.11;100.00
35023;BME280;21214;44.912;8.204;2023-04-22T09:35:29;99651.53;;;15.19;100.00
35023;BME280;21214;44.912;8.204;2023-04-22T09:37:55;99650.38;;;15.13;100.00
35023;BME280;21214;44.912;8.204;2023-04-22T09:40:21;99650.69;;;15.10;100.00
35023;BME280;21214;44.912;8.204;2023-04-22T09:42:50;99654.84;;;15.13;100.00
35023;BME280;21214;44.912;8.204;2023-04-22T09:45:35;99650.50;;;15.20;100.00
35023;BME280;21214;44.912;8.204;2023-04-22T09:48:14;99635.81;;;15.40;100.00
35023;BME280;21214;44.912;8.204;2023-04-22T09:50:46;99640.94;;;15.50;100.00
35023;BME280;21214;44.912;8.204;2023-04-22T09:53:13;99641.25;;;15.63;100.00
35023;BME280;21214;44.912;8.204;2023-04-22T09:55:40;99634.91;;;15.72;100.00
35023;BME280;21214;44.912;8.204;2023-04-22T09:58:07;99644.16;;;15.84;100.00
35023;BME280;21214;44.912;8.204;2023-04-22T10:00:34;99637.41;;;15.96;100.00
35023;BME280;21214;44.912;8.204;2023-04-22T10:02:59;99640.41;;;16.02;100.00
35023;BME280;21214;44.912;8.204;2023-04-22T10:05:25;99635.69;;;16.12;100.00
35023;BME280;21214;44.912;8.204;2023-04-22T10:07:51;99635.69;;;16.12;100.00
35023;BME280;21214;44.912;8.204;2023-04-22T10:10:17;99636.25;;;16.22;100.00
35023;BME280;21214;44.912;8.204;2023-04-22T10:12:42;99628.56;;;16.27;100.00
35023;BME280;21214;44.912;8.204;2023-04-22T10:15:08;99626.19;;;16.32;100.00
35023;BME280;21214;44.912;8.204;2023-04-22T10:17:36;99623.47;;;16.40;100.00
35023;BME280;21214;44.912;8.204;2023-04-22T10:20:03;99618.94;;;16.49;100.00
35023;BME280;21214;44.912;8.204;2023-04-22T10:22:31;99620.06;;;16.54;100.00
35023;BME280;21214;44.912;8.204;2023-04-22T10:24:57;99625.16;;;16.64;100.00
35023;BME280;21214;44.912;8.204;2023-04-22T10:27:22;99616.06;;;16.73;100.00
35023;BME280;21214;44.912;8.204;2023-04-22T10:29:48;99626.22;;;16.77;100.00
35023;BME280;21214;44.912;8.204;2023-04-22T10:34:45;99614.44;;;16.87;100.00
35023;BME280;21214;44.912;8.204;2023-04-22T10:37:11;99606.38;;;16.95;100.00
35023;BME280;21214;44.912;8.204;2023-04-22T10:39:37;99608.59;;;17.06;100.00
35023;BME280;21214;44.912;8.204;2023-04-22T10:42:06;99598.47;;;17.16;100.00
35023;BME280;21214;44.912;8.204;2023-04-22T10:44:50;99593.06;;;17.24;100.00
35023;BME280;21214;44.912;8.204;2023-04-22T10:47:25;99590.94;;;17.34;100.00
35023;BME280;21214;44.912;8.204;2023-04-22T10:49:51;99589.00;;;17.43;100.00
35023;BME280;21214;44.912;8.204;2023-04-22T10:52:32;99591.09;;;17.47;100.00
35023;BME280;21214;44.912;8.204;2023-04-22T10:54:58;99590.38;;;17.53;99.66
35023;BME280;21214;44.912;8.204;2023-04-22T10:57:27;99588.66;;;17.61;98.00
35023;BME280;21214;44.912;8.204;2023-04-22T10:59:56;99581.91;;;17.65;97.77
35023;BME280;21214;44.912;8.204;2023-04-22T11:02:22;99584.19;;;17.68;96.24
35023;BME280;21214;44.912;8.204;2023-04-22T11:04:48;99583.56;;;17.66;96.19
35023;BME280;21214;44.912;8.204;2023-04-22T11:07:14;99572.91;;;17.66;96.47
35023;BME280;21214;44.912;8.204;2023-04-22T11:10:07;99579.31;;;17.56;96.64
35023;BME280;21214;44.912;8.204;2023-04-22T11:17:37;99566.16;;;17.70;98.09
35023;BME280;21214;44.912;8.204;2023-04-22T11:20:04;99567.31;;;17.82;96.63
35023;BME280;21214;44.912;8.204;2023-04-22T11:22:38;99555.97;;;17.94;96.87
35023;BME280;21214;44.912;8.204;2023-04-22T11:25:04;99555.28;;;18.07;95.51
35023;BME280;21214;44.912;8.204;2023-04-22T11:27:30;99554.50;;;18.13;96.69
35023;BME280;21214;44.912;8.204;2023-04-22T11:30:06;99549.22;;;18.20;94.68
35023;BME280;21214;44.912;8.204;2023-04-22T11:32:32;99548.66;;;18.24;93.73
35023;BME280;21214;44.912;8.204;2023-04-22T11:34:58;99549.06;;;18.28;92.49
35023;BME280;21214;44.912;8.204;2023-04-22T11:37:27;99547.63;;;18.25;93.05
35023;BME280;21214;44.912;8.204;2023-04-22T11:39:57;99545.97;;;18.24;92.86
35023;BME280;21214;44.912;8.204;2023-04-22T11:42:23;99542.66;;;18.22;92.06
35023;BME280;21214;44.912;8.204;2023-04-22T11:44:49;99543.69;;;18.21;91.09
35023;BME280;21214;44.912;8.204;2023-04-22T11:47:14;99543.25;;;18.18;90.79
35023;BME280;21214;44.912;8.204;2023-04-22T11:49:40;99540.63;;;18.24;92.58
35023;BME280;21214;44.912;8.204;2023-04-22T11:52:05;99541.78;;;18.36;91.86
35023;BME280;21214;44.912;8.204;2023-04-22T11:54:32;99534.13;;;18.33;90.95
35023;BME280;21214;44.912;8.204;2023-04-22T11:56:59;99533.84;;;18.50;90.86
35023;BME280;21214;44.912;8.204;2023-04-22T11:59:26;99524.16;;;18.70;90.43
35023;BME280;21214;44.912;8.204;2023-04-22T12:01:52;99525.50;;;18.87;88.19
35023;BME280;21214;44.912;8.204;2023-04-22T12:04:20;99515.88;;;18.93;88.08
35023;BME280;21214;44.912;8.204;2023-04-22T12:06:45;99516.56;;;19.14;87.87
35023;BME280;21214;44.912;8.204;2023-04-22T12:09:11;99518.75;;;19.39;86.55
35023;BME280;21214;44.912;8.204;2023-04-22T12:11:37;99515.84;;;19.34;83.19
35023;BME280;21214;44.912;8.204;2023-04-22T12:14:06;99506.81;;;19.35;83.37
35023;BME280;21214;44.912;8.204;2023-04-22T12:16:41;99507.66;;;19.42;82.92
35023;BME280;21214;44.912;8.204;2023-04-22T12:19:06;99506.88;;;19.48;81.38
35023;BME280;21214;44.912;8.204;2023-04-22T12:21:32;99512.66;;;19.51;81.55
35023;BME280;21214;44.912;8.204;2023-04-22T12:23:58;99509.81;;;19.59;81.56
35023;BME280;21214;44.912;8.204;2023-04-22T12:26:24;99506.50;;;19.57;78.15
35023;BME280;21214;44.912;8.204;2023-04-22T12:28:51;99500.34;;;19.70;80.43
35023;BME280;21214;44.912;8.204;2023-04-22T12:31:17;99499.53;;;19.76;78.01
35023;BME280;21214;44.912;8.204;2023-04-22T12:33:42;99500.78;;;19.87;78.15
35023;BME280;21214;44.912;8.204;2023-04-22T12:36:09;99495.00;;;19.77;78.30
35023;BME280;21214;44.912;8.204;2023-04-22T12:38:34;99495.00;;;19.70;77.91
35023;BME280;21214;44.912;8.204;2023-04-22T12:41:00;99496.03;;;19.69;79.08
35023;BME280;21214;44.912;8.204;2023-04-22T12:43:25;99496.66;;;19.71;79.07
35023;BME280;21214;44.912;8.204;2023-04-22T12:45:51;99490.88;;;19.61;79.19
35023;BME280;21214;44.912;8.204;2023-04-22T12:48:17;99485.91;;;19.58;80.42
35023;BME280;21214;44.912;8.204;2023-04-22T12:50:42;99487.16;;;19.62;80.17
35023;BME280;21214;44.912;8.204;2023-04-22T12:53:08;99479.56;;;19.66;80.45
35023;BME280;21214;44.912;8.204;2023-04-22T12:55:34;99483.91;;;19.73;79.96
35023;BME280;21214;44.912;8.204;2023-04-22T12:57:59;99481.81;;;19.75;78.60
35023;BME280;21214;44.912;8.204;2023-04-22T13:00:25;99482.03;;;19.80;77.28
35023;BME280;21214;44.912;8.204;2023-04-22T13:02:50;99477.69;;;19.79;76.12